Time;durP1;ratioP1;P1;durP2;ratioP2;P2;SDS_P1;SDS_P2;PMS_P1;PMS_P2;Temp;Humidity;BMP_temperature;BMP_pressure;BME280_temperature;BME280_humidity;BME280_pressure;Samples;Min_cycle;Max_cycle;Signal;HPM_P1;HPM_P2
2022/06/04 00:01:34;;;;;;;3.13;1.50;;;16.30;32.50;;;;;;5003267;28;20030;-60
2022/06/04 00:04:00;;;;;;;3.15;1.65;;;16.40;32.40;;;;;;5026127;28;20033;-61
2022/06/04 00:06:25;;;;;;;2.65;1.95;;;16.40;33.10;;;;;;5028941;28;20017;-60
2022/06/04 00:08:51;;;;;;;2.42;1.38;;;16.50;32.20;;;;;;5009552;28;20034;-60
2022/06/04 00:16:45;;;;;;;1.70;1.55;;;16.60;32.50;;;;;;5029021;28;20083;-60
2022/06/04 00:19:11;;;;;;;1.85;1.55;;;16.60;32.30;;;;;;5007199;28;20063;-61
2022/06/04 00:21:36;;;;;;;3.25;1.80;;;16.60;32.70;;;;;;5008890;28;20069;-60
2022/06/04 00:24:02;;;;;;;2.83;1.58;;;16.60;32.50;;;;;;5025910;28;20056;-60
2022/06/04 00:26:27;;;;;;;4.05;1.42;;;16.70;33.00;;;;;;5028842;28;20033;-61
2022/06/04 00:28:53;;;;;;;1.88;1.65;;;16.70;32.90;;;;;;5009327;28;20045;-61
2022/06/04 00:31:19;;;;;;;2.03;1.52;;;16.70;33.00;;;;;;5006782;28;20398;-62
2022/06/04 00:33:45;;;;;;;2.17;1.40;;;16.70;33.30;;;;;;5027799;28;20254;-61
2022/06/04 00:36:11;;;;;;;3.08;1.80;;;16.70;34.10;;;;;;4989562;28;20399;-61
2022/06/04 00:38:37;;;;;;;4.38;1.77;;;16.70;34.70;;;;;;5005917;28;20029;-61
2022/06/04 00:41:20;;;;;;;2.17;1.60;;;16.60;34.50;;;;;;5014842;28;20042;-61
2022/06/04 00:44:01;;;;;;;4.68;1.73;;;16.70;36.50;;;;;;4993859;28;20024;-61
2022/06/04 00:46:39;;;;;;;2.20;1.90;;;16.70;36.50;;;;;;5028706;28;20097;-61
2022/06/04 00:49:10;;;;;;;2.33;1.73;;;16.60;35.40;;;;;;5007235;28;20079;-61
2022/06/04 00:51:37;;;;;;;2.03;1.65;;;16.60;35.10;;;;;;5006524;28;20121;-61
2022/06/04 00:54:03;;;;;;;2.55;1.58;;;16.70;35.30;;;;;;5007693;28;20030;-62
2022/06/04 00:57:14;;;;;;;2.75;1.90;;;16.60;35.60;;;;;;5025608;28;20017;-61
2022/06/04 01:00:10;;;;;;;2.22;1.58;;;16.60;37.70;;;;;;4974241;28;20405;-61
2022/06/04 01:03:11;;;;;;;1.63;1.52;;;16.60;36.40;;;;;;4991832;28;20880;-61
2022/06/04 01:05:40;;;;;;;1.67;1.40;;;16.60;36.90;;;;;;4927593;28;20034;-61
2022/06/04 01:08:37;;;;;;;1.77;1.67;;;16.60;36.10;;;;;;5007592;28;20029;-61
2022/06/04 01:11:05;;;;;;;;;;;16.60;38.40;;;;;;5026943;28;20544;-61
2022/06/04 01:13:59;;;;;;;3.72;2.13;;;16.60;41.00;;;;;;5028394;28;20280;-60
2022/06/04 01:16:38;;;;;;;3.25;1.95;;;16.60;39.80;;;;;;4997667;28;20021;-62
2022/06/04 01:19:09;;;;;;;2.58;2.28;;;16.60;38.60;;;;;;5028158;28;20680;-61
2022/06/04 01:21:47;;;;;;;2.45;2.00;;;16.50;38.90;;;;;;5006935;28;20084;-61
2022/06/04 01:24:22;;;;;;;3.67;2.00;;;16.50;40.20;;;;;;5008756;28;20030;-61
2022/06/04 01:27:06;;;;;;;3.25;1.90;;;16.50;39.20;;;;;;5025744;28;20075;-61
2022/06/04 01:29:45;;;;;;;2.47;2.00;;;16.50;40.60;;;;;;4988920;28;20429;-61
2022/06/04 01:32:22;;;;;;;2.13;1.75;;;16.50;40.40;;;;;;5018518;28;20029;-61
2022/06/04 01:35:10;;;;;;;2.90;2.20;;;16.50;40.60;;;;;;5031411;28;20037;-61
2022/06/04 01:37:49;;;;;;;2.92;2.35;;;16.50;41.80;;;;;;5005353;28;20356;-61
2022/06/04 01:43:08;;;;;;;1.85;1.70;;;16.40;41.80;;;;;;5011081;28;20227;-61
2022/06/04 01:45:37;;;;;;;1.90;1.70;;;16.40;41.90;;;;;;5031181;28;20136;-61
2022/06/04 01:48:05;;;;;;;4.90;2.22;;;16.30;43.70;;;;;;4991267;28;20030;-61
2022/06/04 01:50:49;;;;;;;3.47;2.30;;;16.40;42.50;;;;;;5010947;28;20064;-61
2022/06/04 01:53:16;;;;;;;2.42;2.00;;;16.30;43.60;;;;;;4992066;28;20042;-62
2022/06/04 01:55:49;;;;;;;3.60;2.03;;;16.30;44.00;;;;;;5030338;28;20029;-61
2022/06/04 01:58:20;;;;;;;2.17;1.83;;;16.30;45.30;;;;;;5031427;28;20044;-61
2022/06/04 02:00:57;;;;;;;4.72;2.15;;;16.20;45.90;;;;;;4983804;28;20030;-61
2022/06/04 02:03:35;;;;;;;5.43;2.17;;;16.20;47.50;;;;;;5031273;28;20416;-61
2022/06/04 02:06:07;;;;;;;3.75;2.35;;;16.10;46.50;;;;;;4994066;28;20057;-61
2022/06/04 02:08:42;;;;;;;2.92;2.40;;;16.10;47.50;;;;;;5031071;28;20378;-61
2022/06/04 02:11:14;;;;;;;2.20;2.00;;;16.00;47.80;;;;;;4996203;28;20033;-64
2022/06/04 02:13:41;;;;;;;4.45;1.95;;;16.10;48.00;;;;;;5030997;28;20108;-60
2022/06/04 02:16:19;;;;;;;5.13;2.03;;;16.00;47.80;;;;;;5009529;28;20555;-64
2022/06/04 02:18:45;;;;;;;3.90;2.03;;;16.00;49.00;;;;;;5010946;28;20421;-64
2022/06/04 02:21:10;;;;;;;2.28;1.90;;;15.90;49.20;;;;;;5028268;28;20033;-64
2022/06/04 02:23:36;;;;;;;1.65;1.48;;;16.00;50.10;;;;;;5030804;28;20576;-63
2022/06/04 02:26:02;;;;;;;3.15;1.77;;;15.90;50.20;;;;;;5009409;28;20030;-63
2022/06/04 02:28:29;;;;;;;3.17;2.00;;;15.90;50.50;;;;;;5011159;28;20478;-64
2022/06/04 02:31:08;;;;;;;2.70;2.03;;;15.90;50.30;;;;;;5028008;28;20045;-63
2022/06/04 02:34:01;;;;;;;4.07;2.28;;;15.90;51.60;;;;;;5030649;28;20711;-63
2022/06/04 02:36:37;;;;;;;2.97;1.70;;;15.80;51.90;;;;;;5000957;28;20484;-64
2022/06/04 02:39:14;;;;;;;3.90;2.08;;;15.80;53.00;;;;;;5028146;28;20068;-61
2022/06/04 02:41:47;;;;;;;2.90;1.95;;;15.80;52.80;;;;;;5000033;28;20046;-61
2022/06/04 02:44:26;;;;;;;4.32;2.95;;;15.80;55.70;;;;;;5003105;28;20401;-61
2022/06/04 02:47:02;;;;;;;3.05;2.25;;;15.80;57.00;;;;;;5010847;28;20030;-61
2022/06/04 02:49:43;;;;;;;2.72;2.00;;;15.80;53.00;;;;;;5007145;28;20041;-61
2022/06/04 02:52:13;;;;;;;3.85;2.13;;;15.80;55.00;;;;;;4990880;28;20049;-61
2022/06/04 02:54:49;;;;;;;2.22;1.83;;;15.80;54.10;;;;;;5028072;28;20385;-61
2022/06/04 02:57:15;;;;;;;3.17;2.13;;;15.80;54.00;;;;;;4990762;28;20077;-61
2022/06/04 02:59:43;;;;;;;3.40;2.03;;;15.70;54.20;;;;;;5023606;28;20128;-60
2022/06/04 03:02:11;;;;;;;5.35;2.40;;;15.70;54.00;;;;;;5010565;28;20512;-61
2022/06/04 03:04:50;;;;;;;4.60;2.78;;;15.70;53.80;;;;;;5027308;28;20025;-61
2022/06/04 03:07:17;;;;;;;3.75;2.60;;;15.70;54.30;;;;;;4973002;28;20097;-61
2022/06/04 03:09:44;;;;;;;2.97;2.30;;;15.70;54.40;;;;;;5026835;28;20091;-61
2022/06/04 03:12:11;;;;;;;2.88;2.22;;;15.70;54.60;;;;;;5010281;28;20512;-61
2022/06/04 03:14:37;;;;;;;5.43;2.10;;;15.70;54.60;;;;;;5027268;28;20026;-61
2022/06/04 03:17:06;;;;;;;2.72;2.03;;;15.60;54.30;;;;;;5010241;28;20034;-61
2022/06/04 03:19:32;;;;;;;2.45;2.25;;;15.70;55.00;;;;;;5027512;28;20075;-61
2022/06/04 03:21:57;;;;;;;4.10;2.53;;;15.60;54.90;;;;;;5010394;28;20057;-61
2022/06/04 03:24:23;;;;;;;3.13;2.40;;;15.60;54.50;;;;;;5026968;28;20029;-61
2022/06/04 03:26:49;;;;;;;3.05;2.50;;;15.60;55.30;;;;;;4992483;28;20030;-61
2022/06/04 03:29:14;;;;;;;1.77;1.67;;;15.60;54.30;;;;;;5026864;28;20056;-61
2022/06/04 03:31:40;;;;;;;2.60;2.30;;;15.60;55.30;;;;;;5029504;28;20473;-61
2022/06/04 03:34:05;;;;;;;4.85;2.00;;;15.50;54.80;;;;;;4990275;28;20107;-61
2022/06/04 03:36:33;;;;;;;4.22;2.25;;;15.60;54.90;;;;;;5009484;28;20037;-61
2022/06/04 03:39:00;;;;;;;3.60;2.15;;;15.70;54.90;;;;;;5026808;28;20049;-61
2022/06/04 03:41:26;;;;;;;2.35;1.90;;;15.90;53.90;;;;;;5019768;28;20379;-61
2022/06/04 03:43:52;;;;;;;2.88;1.90;;;16.30;52.30;;;;;;5008951;28;20119;-61
2022/06/04 03:46:20;;;;;;;4.50;2.20;;;16.20;51.10;;;;;;5029272;28;20025;-62
2022/06/04 03:48:46;;;;;;;2.13;1.90;;;16.20;51.70;;;;;;5007792;28;20025;-61
2022/06/04 03:51:11;;;;;;;4.68;2.25;;;16.10;51.80;;;;;;5009810;28;20022;-61
2022/06/04 03:53:37;;;;;;;3.22;1.88;;;16.10;51.70;;;;;;5025992;28;20108;-61
2022/06/04 03:56:02;;;;;;;3.88;2.03;;;16.10;52.20;;;;;;5029125;28;20362;-61
2022/06/04 03:58:30;;;;;;;2.80;2.13;;;16.10;53.30;;;;;;5007976;28;20045;-61
2022/06/04 04:00:56;;;;;;;3.17;2.20;;;16.10;53.80;;;;;;5006009;28;20029;-61
2022/06/04 04:03:22;;;;;;;4.35;2.60;;;16.00;54.10;;;;;;5008657;28;20025;-61
2022/06/04 04:05:54;;;;;;;4.18;2.20;;;16.10;54.00;;;;;;5028885;28;20041;-62
2022/06/04 04:08:23;;;;;;;2.42;2.08;;;16.10;54.20;;;;;;4996620;28;20057;-62
2022/06/04 04:10:48;;;;;;;4.28;2.40;;;16.00;53.30;;;;;;4998493;28;20038;-62
2022/06/04 04:13:16;;;;;;;3.00;2.20;;;16.00;53.80;;;;;;5007101;28;20512;-61
2022/06/04 04:15:42;;;;;;;5.22;2.33;;;16.00;53.60;;;;;;5016637;28;20087;-60
2022/06/04 04:18:08;;;;;;;2.17;2.00;;;16.00;53.70;;;;;;5003165;28;21688;-61
2022/06/04 04:20:37;;;;;;;3.10;2.42;;;15.90;53.60;;;;;;5004628;28;20034;-63
2022/06/04 04:23:05;;;;;;;2.97;1.70;;;16.00;53.50;;;;;;5002665;28;20069;-63
2022/06/04 04:25:31;;;;;;;3.53;1.92;;;16.00;53.00;;;;;;5012936;28;20026;-62
2022/06/04 04:27:57;;;;;;;2.45;1.70;;;16.10;52.50;;;;;;5009961;28;20505;-63
2022/06/04 04:30:26;;;;;;;2.80;2.22;;;16.20;52.00;;;;;;5018682;28;20065;-62
2022/06/04 04:32:53;;;;;;;2.88;2.17;;;16.20;51.70;;;;;;5004786;28;20076;-64
2022/06/04 04:35:22;;;;;;;3.40;2.35;;;16.30;50.80;;;;;;5012883;28;20042;-63
2022/06/04 04:37:47;;;;;;;3.67;2.40;;;16.30;50.10;;;;;;4989209;28;20077;-65
2022/06/04 04:40:15;;;;;;;2.25;1.88;;;16.40;49.60;;;;;;5002889;28;20054;-63
2022/06/04 04:42:42;;;;;;;4.88;2.42;;;16.50;49.00;;;;;;5025298;28;20572;-64
2022/06/04 04:45:08;;;;;;;2.42;2.00;;;16.60;48.60;;;;;;5006369;28;20112;-64
2022/06/04 04:47:40;;;;;;;3.08;2.17;;;16.60;48.00;;;;;;5024396;28;20057;-64
2022/06/04 04:50:10;;;;;;;3.28;2.28;;;16.70;47.20;;;;;;5011786;28;20029;-65
2022/06/04 04:52:36;;;;;;;2.78;2.20;;;16.80;46.80;;;;;;4985931;28;20042;-66
2022/06/04 04:55:01;;;;;;;3.65;2.17;;;16.90;46.20;;;;;;5017179;28;20107;-65
2022/06/04 04:57:27;;;;;;;4.57;2.15;;;17.10;45.00;;;;;;5006136;28;20044;-65
2022/06/04 04:59:52;;;;;;;4.10;2.30;;;17.30;44.00;;;;;;5015334;28;20052;-64
2022/06/04 05:02:18;;;;;;;3.90;2.38;;;17.60;42.50;;;;;;5005380;28;20034;-63
2022/06/04 05:04:43;;;;;;;2.22;1.83;;;18.00;40.80;;;;;;5022506;28;20431;-64
2022/06/04 05:07:11;;;;;;;3.65;2.33;;;18.40;38.70;;;;;;5015723;28;20037;-64
2022/06/04 05:09:39;;;;;;;3.78;2.22;;;18.90;36.30;;;;;;5022871;28;20022;-57
2022/06/04 05:12:08;;;;;;;5.47;2.17;;;19.30;34.10;;;;;;5013798;28;20026;-57
2022/06/04 05:14:35;;;;;;;4.13;1.95;;;19.20;34.20;;;;;;5029699;28;21055;-59
2022/06/04 05:17:00;;;;;;;3.20;1.92;;;19.20;34.10;;;;;;5008580;28;20037;-57
2022/06/04 05:19:26;;;;;;;2.63;1.88;;;19.10;33.60;;;;;;5010006;28;20026;-56
2022/06/04 05:21:52;;;;;;;3.20;1.92;;;19.00;34.10;;;;;;5010270;28;20041;-56
2022/06/04 05:24:24;;;;;;;5.18;2.03;;;19.30;33.80;;;;;;5027401;28;20026;-56
2022/06/04 05:26:50;;;;;;;3.58;1.95;;;19.90;30.40;;;;;;5002658;28;20137;-56
2022/06/04 05:29:16;;;;;;;2.75;1.85;;;20.90;28.60;;;;;;5012695;28;20172;-55
2022/06/04 05:31:43;;;;;;;2.65;2.00;;;21.80;24.50;;;;;;5003154;28;20496;-56
2022/06/04 05:34:10;;;;;;;4.60;2.65;;;21.60;24.50;;;;;;5002968;28;20394;-54
2022/06/04 05:36:36;;;;;;;3.90;2.38;;;21.90;25.20;;;;;;5005053;28;20037;-54
2022/06/04 05:39:03;;;;;;;2.00;1.63;;;22.30;23.80;;;;;;5012025;28;20025;-56
2022/06/04 05:41:29;;;;;;;3.65;1.85;;;22.40;23.40;;;;;;5009874;28;20104;-56
2022/06/04 05:43:54;;;;;;;2.35;1.92;;;22.30;23.30;;;;;;5026836;28;20029;-56
2022/06/04 05:46:22;;;;;;;3.55;1.92;;;22.10;23.30;;;;;;5010110;28;20671;-54
2022/06/04 05:48:47;;;;;;;3.58;2.10;;;22.00;23.30;;;;;;5018655;28;20061;-55
2022/06/04 05:51:17;;;;;;;4.07;2.10;;;22.10;22.90;;;;;;5009767;28;20057;-56
2022/06/04 05:53:43;;;;;;;4.05;2.05;;;22.80;21.90;;;;;;5023208;28;20065;-56
2022/06/04 05:56:21;;;;;;;3.58;2.20;;;23.70;18.90;;;;;;5029060;28;20028;-55
2022/06/04 05:58:47;;;;;;;2.70;1.88;;;24.40;17.20;;;;;;4994248;28;20517;-57
2022/06/04 06:01:17;;;;;;;5.57;2.05;;;26.30;15.10;;;;;;5025456;28;20033;-56
2022/06/04 06:03:43;;;;;;;2.03;1.73;;;27.50;12.70;;;;;;5009735;28;20060;-57
2022/06/04 06:06:18;;;;;;;2.83;1.42;;;29.20;11.30;;;;;;5018158;28;20034;-57
2022/06/04 06:08:44;;;;;;;1.80;1.70;;;30.80;7.70;;;;;;5009088;28;20678;-57
2022/06/04 06:11:12;;;;;;;2.63;1.80;;;31.60;7.80;;;;;;5026176;28;20587;-57
2022/06/04 06:13:38;;;;;;;3.50;1.90;;;31.60;7.00;;;;;;5017998;28;20030;-56
2022/06/04 06:16:06;;;;;;;2.10;1.55;;;31.00;6.30;;;;;;5013061;28;20045;-57
2022/06/04 06:18:32;;;;;;;1.98;1.52;;;29.60;7.10;;;;;;5011694;28;20017;-57
2022/06/04 06:20:58;;;;;;;2.20;1.60;;;28.20;8.70;;;;;;5018043;28;20056;-57
2022/06/04 06:23:24;;;;;;;2.53;1.63;;;27.00;9.80;;;;;;5009156;28;20061;-57
2022/06/04 06:25:50;;;;;;;2.50;1.58;;;25.90;11.20;;;;;;5004202;28;20057;-59
2022/06/04 06:28:16;;;;;;;2.40;1.85;;;25.10;11.70;;;;;;4989377;28;20034;-56
2022/06/04 06:30:41;;;;;;;4.32;1.80;;;24.40;10.60;;;;;;5025269;28;20037;-57
2022/06/04 06:33:07;;;;;;;2.55;1.60;;;24.20;13.60;;;;;;5014429;28;20105;-57
2022/06/04 06:35:32;;;;;;;1.70;1.40;;;24.20;13.80;;;;;;4995544;28;20042;-56
2022/06/04 06:37:58;;;;;;;2.53;1.75;;;24.20;13.70;;;;;;5025731;28;20109;-55
2022/06/04 06:40:24;;;;;;;2.35;1.60;;;24.00;13.70;;;;;;4991964;28;20540;-56
2022/06/04 06:42:49;;;;;;;2.05;1.80;;;23.70;13.70;;;;;;4987102;28;20091;-54
2022/06/04 06:45:15;;;;;;;3.28;2.00;;;23.70;13.40;;;;;;5008640;28;20041;-57
2022/06/04 06:47:40;;;;;;;4.30;1.90;;;23.60;13.50;;;;;;5006057;28;20018;-57
2022/06/04 06:50:07;;;;;;;3.85;1.85;;;24.00;12.90;;;;;;5009587;28;20045;-57
2022/06/04 06:52:32;;;;;;;2.45;1.90;;;24.50;12.40;;;;;;5007163;28;20033;-55
2022/06/04 06:54:58;;;;;;;1.98;1.60;;;25.00;11.70;;;;;;4994794;28;20030;-57
2022/06/04 06:57:24;;;;;;;2.55;1.83;;;25.10;11.10;;;;;;5002760;28;20577;-53
2022/06/04 06:59:49;;;;;;;2.80;1.80;;;24.60;11.00;;;;;;5020155;28;20038;-53
2022/06/04 07:02:15;;;;;;;9.02;2.35;;;24.30;12.10;;;;;;4995485;28;20545;-57
2022/06/04 07:04:41;;;;;;;2.30;1.77;;;24.20;12.70;;;;;;4990583;28;20447;-55
2022/06/04 07:07:06;;;;;;;4.07;2.00;;;24.10;13.10;;;;;;5026888;28;20420;-54
2022/06/04 07:09:35;;;;;;;2.30;2.05;;;24.40;12.60;;;;;;5028686;28;20022;-55
2022/06/04 07:12:03;;;;;;;2.42;1.90;;;24.50;12.50;;;;;;4990661;28;20516;-54
2022/06/04 07:14:29;;;;;;;3.17;2.03;;;25.60;11.40;;;;;;5010246;28;20033;-56
2022/06/04 07:16:57;;;;;;;2.47;1.90;;;26.30;9.50;;;;;;5027120;28;20497;-57
2022/06/04 07:19:24;;;;;;;2.10;1.67;;;26.90;8.10;;;;;;5029823;28;20029;-56
2022/06/04 07:21:51;;;;;;;2.00;1.73;;;28.10;8.10;;;;;;5010403;28;20029;-55
2022/06/04 07:24:17;;;;;;;2.55;1.90;;;28.90;6.20;;;;;;4993313;28;20044;-55
2022/06/04 07:26:43;;;;;;;2.28;1.70;;;29.80;5.10;;;;;;5027076;28;20029;-56
2022/06/04 07:29:10;;;;;;;3.17;2.08;;;29.60;4.00;;;;;;4989032;28;20046;-55
2022/06/04 07:31:36;;;;;;;3.72;2.30;;;28.50;3.10;;;;;;5009340;28;20278;-54
2022/06/04 07:34:02;;;;;;;2.50;2.10;;;27.70;5.90;;;;;;5009511;28;20493;-53
2022/06/04 07:36:34;;;;;;;2.38;1.90;;;27.00;6.50;;;;;;5029033;28;20436;-54
2022/06/04 07:39:00;;;;;;;2.47;2.03;;;26.50;7.10;;;;;;5005271;28;20034;-56
2022/06/04 07:41:38;;;;;;;2.25;1.90;;;26.50;7.50;;;;;;5019379;28;20034;-57
2022/06/04 07:44:08;;;;;;;2.60;1.90;;;26.80;7.00;;;;;;5006269;28;20046;-55
2022/06/04 07:46:34;;;;;;;2.08;1.88;;;26.40;7.40;;;;;;4989939;28;20518;-54
2022/06/04 07:49:03;;;;;;;3.22;2.10;;;26.00;8.00;;;;;;5009196;28;20030;-56
2022/06/04 07:51:29;;;;;;;2.67;2.10;;;25.60;8.50;;;;;;5029063;28;20034;-54
2022/06/04 07:53:55;;;;;;;3.70;1.80;;;25.70;8.30;;;;;;4991786;28;20065;-57
2022/06/04 07:56:22;;;;;;;3.13;1.85;;;25.90;8.40;;;;;;5027997;28;20060;-56
2022/06/04 07:58:48;;;;;;;2.78;1.75;;;26.50;7.90;;;;;;4992426;28;20030;-52
2022/06/04 08:01:16;;;;;;;2.45;1.65;;;26.40;7.20;;;;;;5021852;28;20038;-55
2022/06/04 08:03:44;;;;;;;2.58;2.10;;;26.80;7.30;;;;;;4992950;28;20026;-56
2022/06/04 08:06:10;;;;;;;3.22;1.58;;;26.50;7.40;;;;;;5028353;28;20040;-54
2022/06/04 08:08:37;;;;;;;3.00;1.98;;;25.80;7.30;;;;;;4994114;28;20045;-53
2022/06/04 08:11:30;;;;;;;4.20;2.00;;;25.10;8.60;;;;;;5008705;28;20030;-54
2022/06/04 08:13:49;;;;;;;2.42;2.15;;;24.60;9.80;;;;;;5003591;28;20037;-52
2022/06/04 08:16:15;;;;;;;2.13;1.92;;;24.40;10.00;;;;;;5028299;28;20144;-56
2022/06/04 08:18:40;;;;;;;4.38;1.98;;;24.30;10.40;;;;;;4993404;28;20037;-60
2022/06/04 08:21:07;;;;;;;4.50;2.00;;;24.80;10.50;;;;;;5004806;28;20207;-60
2022/06/04 08:23:33;;;;;;;2.60;1.90;;;25.40;9.60;;;;;;5018197;28;20037;-60
2022/06/04 08:25:58;;;;;;;2.13;1.45;;;25.70;9.50;;;;;;5009656;28;20038;-60
2022/06/04 08:28:24;;;;;;;3.25;1.40;;;25.70;9.40;;;;;;5026374;28;20091;-60
2022/06/04 08:31:03;;;;;;;2.88;1.75;;;25.50;9.70;;;;;;5009750;28;20037;-60
2022/06/04 08:33:29;;;;;;;2.08;1.83;;;25.20;10.10;;;;;;5008761;28;20033;-58
2022/06/04 08:35:55;;;;;;;4.05;1.85;;;24.80;10.50;;;;;;5009750;28;20033;-61
2022/06/04 08:38:20;;;;;;;3.78;2.10;;;24.50;11.10;;;;;;5026065;28;20087;-61
2022/06/04 08:40:52;;;;;;;4.50;1.55;;;24.30;11.50;;;;;;5016658;28;20045;-61
2022/06/04 08:43:32;;;;;;;1.83;1.67;;;24.10;12.40;;;;;;5030941;28;20041;-61
2022/06/04 08:46:01;;;;;;;2.60;1.60;;;24.00;12.60;;;;;;4993797;28;20026;-60
2022/06/04 08:48:34;;;;;;;2.35;1.52;;;23.80;12.30;;;;;;5030236;28;20060;-61
2022/06/04 08:51:00;;;;;;;3.90;1.98;;;23.70;12.50;;;;;;4993354;28;20089;-61
2022/06/04 08:53:29;;;;;;;2.42;1.65;;;23.80;12.80;;;;;;5029771;28;20030;-61
2022/06/04 08:59:15;;;;;;;4.38;1.80;;;23.80;13.60;;;;;;5006474;28;20512;-61
2022/06/04 09:01:45;;;;;;;3.90;1.52;;;24.20;13.00;;;;;;4987113;28;20408;-61
2022/06/04 09:04:36;;;;;;;2.72;1.60;;;24.20;13.30;;;;;;5007807;28;20037;-61
2022/06/04 09:07:37;;;;;;;2.17;1.70;;;24.00;13.20;;;;;;5032554;28;20052;-61
2022/06/04 09:10:17;;;;;;;2.90;1.80;;;23.60;13.10;;;;;;5019030;28;20037;-62
2022/06/04 09:12:49;;;;;;;1.95;1.77;;;23.10;14.50;;;;;;4994852;28;20026;-62
2022/06/04 09:15:21;;;;;;;2.42;1.65;;;22.90;14.90;;;;;;5017592;28;20038;-62
2022/06/04 09:17:56;;;;;;;2.65;1.83;;;22.60;15.00;;;;;;4991612;28;20040;-62
2022/06/04 09:20:39;;;;;;;1.70;1.60;;;22.30;15.50;;;;;;5001062;28;20036;-62
2022/06/04 09:23:25;;;;;;;2.00;1.80;;;22.00;16.90;;;;;;4987161;28;20432;-62
2022/06/04 09:26:03;;;;;;;1.65;1.50;;;21.90;17.20;;;;;;5002574;28;20080;-62
2022/06/04 09:28:54;;;;;;;4.57;1.90;;;21.70;17.40;;;;;;4999704;28;20033;-61
2022/06/04 09:31:33;;;;;;;1.92;1.55;;;21.60;17.70;;;;;;5000919;28;20049;-62
2022/06/04 09:34:37;;;;;;;3.35;1.58;;;21.40;19.30;;;;;;4991089;28;20023;-62
2022/06/04 09:37:05;;;;;;;1.90;1.52;;;21.40;20.70;;;;;;4997307;28;20033;-62
2022/06/04 09:39:34;;;;;;;4.75;2.03;;;21.40;19.90;;;;;;5030259;28;20029;-62
2022/06/04 09:42:04;;;;;;;1.63;1.52;;;21.40;19.50;;;;;;5009821;28;20417;-62
2022/06/04 09:44:31;;;;;;;3.10;1.83;;;21.40;19.90;;;;;;5011932;28;20081;-62
2022/06/04 09:47:21;;;;;;;1.85;1.63;;;21.40;20.20;;;;;;5029448;28;20060;-62
2022/06/04 09:49:59;;;;;;;2.08;1.95;;;21.40;20.00;;;;;;5030597;28;20037;-62
2022/06/04 09:52:42;;;;;;;2.40;1.80;;;21.50;21.20;;;;;;5009324;28;20034;-62
2022/06/04 09:55:21;;;;;;;2.05;1.63;;;21.60;20.20;;;;;;5011715;28;20025;-62
2022/06/04 09:58:02;;;;;;;2.00;1.60;;;21.70;20.70;;;;;;5010202;28;20033;-63
2022/06/04 10:00:32;;;;;;;2.47;1.60;;;21.90;20.50;;;;;;5005172;28;20036;-62
2022/06/04 10:03:17;;;;;;;2.47;1.67;;;22.00;20.30;;;;;;4998340;28;20022;-62
2022/06/04 10:06:08;;;;;;;4.37;1.67;;;22.20;21.10;;;;;;4992225;28;20030;-62
2022/06/04 10:11:23;;;;;;;3.25;1.67;;;22.60;19.30;;;;;;5031298;28;20119;-62
2022/06/04 10:13:52;;;;;;;2.67;1.45;;;23.00;19.20;;;;;;4991380;28;20042;-62
2022/06/04 10:16:20;;;;;;;3.47;1.70;;;23.10;18.90;;;;;;5011034;28;20072;-62
2022/06/04 10:19:12;;;;;;;3.03;1.48;;;23.30;18.50;;;;;;5010723;28;20128;-62
2022/06/04 10:21:41;;;;;;;1.90;1.42;;;23.10;18.50;;;;;;4991103;28;20038;-62
2022/06/04 10:24:21;;;;;;;1.73;1.50;;;23.00;18.60;;;;;;5031072;28;20026;-62
2022/06/04 10:27:22;;;;;;;1.60;1.50;;;23.10;18.40;;;;;;4993460;28;20699;-62
2022/06/04 10:30:06;;;;;;;2.20;1.40;;;23.10;17.80;;;;;;5016891;28;20645;-62
2022/06/04 10:33:02;;;;;;;2.30;1.42;;;23.00;17.90;;;;;;5009552;28;20069;-61
2022/06/04 10:35:40;;;;;;;1.58;1.20;;;22.80;18.10;;;;;;4991704;28;20080;-62
2022/06/04 10:38:15;;;;;;;2.80;1.40;;;22.80;18.40;;;;;;5002237;28;20030;-62
2022/06/04 10:40:45;;;;;;;2.00;1.33;;;22.80;18.20;;;;;;5027142;28;20034;-62
2022/06/04 10:43:48;;;;;;;2.95;1.40;;;22.60;18.30;;;;;;5009146;28;20113;-62
2022/06/04 10:46:42;;;;;;;3.42;1.75;;;22.50;17.50;;;;;;4987274;28;20049;-62
2022/06/04 10:49:31;;;;;;;1.52;1.33;;;22.20;18.20;;;;;;4991103;28;20034;-62
2022/06/04 10:52:42;;;;;;;2.47;1.63;;;22.10;18.90;;;;;;4995646;28;20049;-62
2022/06/04 10:55:20;;;;;;;1.52;1.23;;;22.00;19.90;;;;;;4976080;28;20194;-62
2022/06/04 10:58:03;;;;;;;2.42;1.25;;;21.90;20.00;;;;;;5008817;28;20067;-62
2022/06/04 11:00:59;;;;;;;2.70;1.67;;;21.80;20.40;;;;;;5009610;28;20033;-62
2022/06/04 11:03:48;;;;;;;1.40;1.30;;;21.70;22.10;;;;;;4988575;28;20042;-63
2022/06/04 11:06:24;;;;;;;2.90;1.30;;;21.70;23.90;;;;;;4996283;28;20046;-62
2022/06/04 11:09:02;;;;;;;1.70;1.33;;;21.70;24.50;;;;;;4985297;28;20033;-62
2022/06/04 11:11:39;;;;;;;3.83;1.60;;;21.70;26.40;;;;;;5012874;28;20029;-62
2022/06/04 11:14:13;;;;;;;1.55;1.45;;;21.90;29.00;;;;;;5005445;28;20042;-63
2022/06/04 11:16:43;;;;;;;2.85;1.40;;;22.20;28.90;;;;;;5010986;28;20018;-62
2022/06/04 11:19:38;;;;;;;2.88;1.67;;;22.50;28.30;;;;;;5000100;28;20021;-63
2022/06/04 11:22:18;;;;;;;2.97;1.70;;;22.80;39.70;;;;;;5018551;28;20026;-62
2022/06/04 11:25:06;;;;;;;1.80;1.70;;;23.10;32.30;;;;;;5012891;28;20032;-61
2022/06/04 11:27:35;;;;;;;2.30;1.52;;;23.40;26.80;;;;;;4998207;28;20037;-62
2022/06/04 11:30:03;;;;;;;2.63;1.50;;;23.50;22.90;;;;;;5023196;28;20718;-61
2022/06/04 11:32:52;;;;;;;2.05;1.60;;;23.70;22.00;;;;;;5015751;28;20068;-63
2022/06/04 11:35:33;;;;;;;1.60;1.50;;;23.70;21.80;;;;;;4984195;28;20401;-63
2022/06/04 11:38:17;;;;;;;2.92;1.63;;;23.80;20.00;;;;;;5003760;28;20041;-63
2022/06/04 11:40:51;;;;;;;1.55;1.38;;;23.80;19.00;;;;;;5016319;28;20050;-62
2022/06/04 11:43:32;;;;;;;1.98;1.20;;;23.90;19.60;;;;;;4996824;28;20448;-62
2022/06/04 11:46:07;;;;;;;1.85;1.50;;;24.00;20.00;;;;;;5006131;28;20064;-63
2022/06/04 11:48:54;;;;;;;3.80;1.73;;;24.10;18.90;;;;;;5005660;28;20053;-62
2022/06/04 11:51:50;;;;;;;1.70;1.45;;;24.10;16.70;;;;;;4988585;28;20053;-63
2022/06/04 11:54:50;;;;;;;2.83;1.58;;;24.20;15.00;;;;;;5002245;28;20037;-63
2022/06/04 11:57:21;;;;;;;2.00;1.50;;;24.50;14.60;;;;;;5015942;28;20485;-63
2022/06/04 12:00:07;;;;;;;2.38;1.35;;;24.60;15.10;;;;;;5000900;28;20099;-62
2022/06/04 12:02:45;;;;;;;2.72;1.20;;;24.80;15.30;;;;;;5003712;28;20029;-62
2022/06/04 12:05:20;;;;;;;1.98;1.45;;;24.90;13.90;;;;;;5000204;28;20129;-63
2022/06/04 12:07:52;;;;;;;2.83;1.40;;;24.80;13.70;;;;;;5001268;28;20038;-62
2022/06/04 12:10:59;;;;;;;3.88;1.63;;;24.80;12.80;;;;;;4986981;28;20030;-63
2022/06/04 12:13:37;;;;;;;2.50;1.08;;;25.00;13.40;;;;;;4998972;28;20029;-62
2022/06/04 12:16:50;;;;;;;1.55;1.30;;;25.10;13.80;;;;;;5011076;28;20034;-63
2022/06/04 12:25:39;;;;;;;2.83;1.48;;;25.30;12.30;;;;;;5002355;28;20111;-62
2022/06/04 12:28:26;;;;;;;1.52;1.40;;;25.10;13.10;;;;;;5010600;28;20060;-62
2022/06/04 12:30:52;;;;;;;2.28;1.50;;;25.00;13.60;;;;;;5004079;28;20923;-62
2022/06/04 12:33:54;;;;;;;2.83;1.67;;;25.00;14.10;;;;;;5012014;28;20549;-62
2022/06/04 12:36:28;;;;;;;3.85;1.63;;;25.00;14.50;;;;;;4900243;29;20032;-61
2022/06/04 12:39:00;;;;;;;3.00;1.67;;;24.90;14.10;;;;;;4989266;28;20069;-62
2022/06/04 12:41:47;;;;;;;5.53;1.83;;;24.80;14.20;;;;;;4998412;28;20046;-61
2022/06/04 12:44:23;;;;;;;4.78;2.17;;;24.70;14.50;;;;;;5011744;28;20042;-61
2022/06/04 12:46:51;;;;;;;2.95;1.92;;;24.60;14.40;;;;;;4995819;28;20049;-60
2022/06/04 12:49:31;;;;;;;2.38;1.73;;;24.70;14.70;;;;;;5013571;28;20040;-61
2022/06/04 12:52:39;;;;;;;3.25;2.00;;;24.70;14.80;;;;;;4997017;28;20042;-62
2022/06/04 12:55:28;;;;;;;3.22;2.60;;;24.80;15.60;;;;;;4961710;28;20177;-61
2022/06/04 12:58:17;;;;;;;2.72;2.28;;;24.80;15.00;;;;;;4998545;28;20030;-61
2022/06/04 13:00:58;;;;;;;3.90;2.28;;;24.80;15.10;;;;;;4999064;28;20029;-53
2022/06/04 13:03:36;;;;;;;5.03;2.15;;;24.80;15.10;;;;;;4993152;28;20038;-53
2022/06/04 13:06:13;;;;;;;3.08;2.15;;;24.90;15.10;;;;;;5014510;28;20061;-55
2022/06/04 13:09:06;;;;;;;3.15;2.05;;;25.00;14.80;;;;;;4996155;28;20030;-55
2022/06/04 13:11:43;;;;;;;3.30;2.13;;;24.90;14.10;;;;;;4995375;28;20835;-57
2022/06/04 13:14:20;;;;;;;4.03;1.77;;;24.80;14.40;;;;;;5002197;28;20623;-57
2022/06/04 13:16:52;;;;;;;3.30;1.65;;;24.70;14.40;;;;;;5002075;28;20069;-55
2022/06/04 13:20:07;;;;;;;3.13;1.83;;;24.70;14.40;;;;;;5008634;28;20179;-52
2022/06/04 13:22:55;;;;;;;4.45;1.95;;;24.70;13.50;;;;;;4993243;28;20061;-58
2022/06/04 13:25:52;;;;;;;3.28;1.58;;;24.70;14.00;;;;;;5010564;28;20335;-54
2022/06/04 13:28:38;;;;;;;2.13;1.60;;;24.80;13.60;;;;;;5000122;28;20057;-57
2022/06/04 13:31:15;;;;;;;4.13;1.52;;;25.20;13.00;;;;;;5004358;28;20054;-56
2022/06/04 13:33:40;;;;;;;2.63;1.60;;;25.40;13.00;;;;;;4999700;28;20378;-56
2022/06/04 13:36:06;;;;;;;3.28;1.73;;;25.30;12.10;;;;;;4999599;28;20085;-56
2022/06/04 13:38:41;;;;;;;2.95;1.40;;;25.20;12.80;;;;;;5020058;28;20072;-57
2022/06/04 13:41:16;;;;;;;2.17;1.60;;;25.20;12.40;;;;;;4998793;28;20102;-55